Terminal Aerodrome Forecast
Issued by NWS

Home | Current Version | Previous Version | Text Only | Print | Product List | Glossary On
Versions: 1 2 3 4 5 6 7 8 9 10 11 12 13 14 15 16 17 18 19 20 21 22 23 24 25 26 27 28 29 30 31 32 33 34 35 36 37 38 39
000
FTUS44 KBMX 191349 AAA
TAFASN
TAF AMD
KASN 191349Z 1914/2012 00000KT P6SM OVC080
     FM191600 09003KT P6SM VCSH OVC025
     FM192100 15005KT 5SM -RA BR OVC015
     FM200000 15007KT 4SM -SHRA VCTS OVC012CB=

USA.gov is the U.S. government's official web portal to all federal, state and local government web resources and services.